createdAt,value
2023-03-31T00:01:53.184Z,10.4
2023-03-31T00:03:55.326Z,10.3
2023-03-31T00:07:59.397Z,10.3
2023-03-31T00:10:18.076Z,10.3
2023-03-31T00:12:06.905Z,10.3
2023-03-31T00:14:09.031Z,10.3
2023-03-31T00:16:11.288Z,10.3
2023-03-31T00:18:13.331Z,10.3
2023-03-31T00:20:15.456Z,10.3
2023-03-31T00:26:25.086Z,10.2
2023-03-31T00:30:29.306Z,10.2
2023-03-31T00:32:31.394Z,10.3
2023-03-31T00:34:33.476Z,10.3
2023-03-31T00:36:35.599Z,10.2
2023-03-31T00:38:37.739Z,10.3
2023-03-31T00:40:43.143Z,10.3
2023-03-31T00:42:45.273Z,10.2
2023-03-31T00:44:47.393Z,10.3
2023-03-31T00:49:54.236Z,10.4
2023-03-31T00:51:56.720Z,10.4
2023-03-31T00:54:01.664Z,10.4
2023-03-31T00:56:03.955Z,10.5
2023-03-31T00:58:05.937Z,10.4
2023-03-31T01:00:08.081Z,10.5
2023-03-31T01:02:10.242Z,10.5
2023-03-31T01:04:12.434Z,10.5
2023-03-31T01:06:14.404Z,10.5
2023-03-31T01:08:19.651Z,10.6
2023-03-31T01:10:21.708Z,10.6
2023-03-31T01:12:24.010Z,10.7
2023-03-31T01:14:25.979Z,10.7
2023-03-31T01:16:28.148Z,10.7
2023-03-31T01:18:30.285Z,10.6
2023-03-31T01:20:32.396Z,10.7
2023-03-31T01:24:39.601Z,10.7
2023-03-31T01:26:41.657Z,10.7
2023-03-31T01:42:02.224Z,10.7
2023-03-31T01:44:04.324Z,10.7
2023-03-31T01:48:08.625Z,10.6
2023-03-31T01:50:13.813Z,10.6
2023-03-31T01:56:20.063Z,10.6
2023-03-31T02:02:26.439Z,10.5
2023-03-31T02:04:31.762Z,10.3
2023-03-31T02:06:33.912Z,10.3
2023-03-31T02:08:36.040Z,10.3
2023-03-31T02:10:38.199Z,10.2
2023-03-31T02:14:42.444Z,10.3
2023-03-31T02:18:49.862Z,10.3
2023-03-31T02:20:51.924Z,10.5
2023-03-31T02:22:53.938Z,10.5
2023-03-31T02:24:56.080Z,10.4
2023-03-31T02:26:58.242Z,10.4
2023-03-31T02:29:00.359Z,10.4
2023-03-31T02:31:02.391Z,10.4
2023-03-31T02:33:07.778Z,10.4
2023-03-31T02:35:09.817Z,10.5
2023-03-31T02:37:11.956Z,10.4
2023-03-31T02:39:40.677Z,10.4
2023-03-31T02:41:42.828Z,10.4
2023-03-31T02:45:50.396Z,10.5
2023-03-31T02:47:52.501Z,10.5
2023-03-31T02:49:54.638Z,10.5
2023-03-31T02:51:56.777Z,10.6
2023-03-31T02:53:58.932Z,10.6
2023-03-31T02:56:01.072Z,10.5
2023-03-31T02:58:03.204Z,10.6
2023-03-31T03:00:08.628Z,10.5
2023-03-31T03:02:10.713Z,10.6
2023-03-31T03:04:12.880Z,10.6
2023-03-31T03:06:14.995Z,10.6
2023-03-31T03:08:17.036Z,10.5
2023-03-31T03:10:19.185Z,10.5
2023-03-31T03:12:21.469Z,10.5
2023-03-31T03:14:26.612Z,10.6
2023-03-31T03:16:28.794Z,10.5
2023-03-31T03:20:32.835Z,10.5
2023-03-31T03:22:34.978Z,10.5
2023-03-31T03:24:37.120Z,10.5
2023-03-31T03:26:39.311Z,10.5
2023-03-31T03:28:44.581Z,10.4
2023-03-31T03:30:46.702Z,10.4
2023-03-31T03:32:48.830Z,10.5
2023-03-31T03:33:51.357Z,10.4
2023-03-31T03:35:53.486Z,10.4
2023-03-31T03:48:09.234Z,10.3
2023-03-31T03:50:12.179Z,10.3
2023-03-31T03:54:17.085Z,10.2
2023-03-31T03:56:22.466Z,10.2
2023-03-31T03:58:24.493Z,10.3
2023-03-31T04:00:26.608Z,10.2
2023-03-31T04:04:30.857Z,10.1
2023-03-31T04:06:32.942Z,10.1
2023-03-31T04:08:35.076Z,10.1
2023-03-31T04:10:40.473Z,10
2023-03-31T04:12:42.575Z,10
2023-03-31T04:14:44.707Z,10
2023-03-31T04:16:47.062Z,9.9
2023-03-31T04:18:49.013Z,9.9
2023-03-31T04:22:53.166Z,9.9
2023-03-31T04:24:58.525Z,9.9
2023-03-31T04:30:05.398Z,9.9
2023-03-31T04:32:07.495Z,9.8
2023-03-31T04:34:09.464Z,9.9
2023-03-31T04:36:11.638Z,9.9
2023-03-31T04:40:19.084Z,9.9
2023-03-31T04:42:21.219Z,9.9
2023-03-31T04:44:23.335Z,9.9
2023-03-31T04:46:25.545Z,9.9
2023-03-31T04:48:27.615Z,9.9
2023-03-31T04:50:29.720Z,9.9
2023-03-31T04:52:35.124Z,9.9
2023-03-31T04:54:37.256Z,9.8
2023-03-31T04:56:39.382Z,9.8
2023-03-31T04:58:41.464Z,9.9
2023-03-31T05:00:43.548Z,9.9
2023-03-31T05:02:45.706Z,9.9
2023-03-31T05:04:47.819Z,9.9
2023-03-31T05:06:53.082Z,9.9
2023-03-31T05:08:55.213Z,9.9
2023-03-31T05:10:57.322Z,9.9
2023-03-31T05:12:59.463Z,9.9
2023-03-31T05:15:01.598Z,9.9
2023-03-31T05:17:03.758Z,9.9
2023-03-31T05:19:05.869Z,9.9
2023-03-31T05:21:11.225Z,9.9
2023-03-31T05:23:13.266Z,9.9
2023-03-31T05:25:15.396Z,9.9
2023-03-31T05:26:18.067Z,10
2023-03-31T05:32:24.560Z,10
2023-03-31T05:36:31.885Z,10
2023-03-31T05:38:34.053Z,10
2023-03-31T05:40:36.146Z,10
2023-03-31T05:54:54.266Z,10.2
2023-03-31T05:56:56.451Z,10.2
2023-03-31T05:58:58.571Z,10.2
2023-03-31T06:01:00.562Z,10.2
2023-03-31T06:03:06.065Z,10.2
2023-03-31T06:05:07.938Z,10.2
2023-03-31T06:07:10.075Z,10.2
2023-03-31T06:09:12.171Z,10.2
2023-03-31T06:11:14.217Z,10.2
2023-03-31T06:13:16.380Z,10.2
2023-03-31T06:15:18.484Z,10.2
2023-03-31T06:17:23.867Z,10.2
2023-03-31T06:19:25.989Z,10.2
2023-03-31T06:21:28.019Z,10.2
2023-03-31T06:32:08.471Z,10.2
2023-03-31T06:34:10.493Z,10.3
2023-03-31T06:42:18.970Z,10.3
2023-03-31T06:44:24.212Z,10.4
2023-03-31T06:58:42.263Z,10.5
2023-03-31T07:04:48.444Z,10.6
2023-03-31T07:06:50.604Z,10.6
2023-03-31T07:08:52.951Z,10.6
2023-03-31T07:13:00.270Z,10.5
2023-03-31T07:15:02.275Z,10.5
2023-03-31T07:17:04.412Z,10.6
2023-03-31T07:22:11.396Z,10.6
2023-03-31T07:24:13.542Z,10.7
2023-03-31T07:26:18.920Z,10.7
2023-03-31T07:28:21.054Z,10.7
2023-03-31T07:32:28.496Z,10.7
2023-03-31T07:36:29.558Z,10.6
2023-03-31T07:38:31.675Z,10.6
2023-03-31T07:46:43.501Z,10.6
2023-03-31T07:48:45.397Z,10.6
2023-03-31T07:50:47.452Z,10.6
2023-03-31T07:52:49.659Z,10.5
2023-03-31T08:01:00.958Z,10.4
2023-03-31T08:07:07.289Z,10.4
2023-03-31T08:14:30.359Z,10.3
2023-03-31T08:16:21.605Z,10.3
2023-03-31T08:18:23.731Z,10.4
2023-03-31T08:20:25.831Z,10.4
2023-03-31T08:22:31.127Z,10.4
2023-03-31T08:24:33.240Z,10.4
2023-03-31T08:26:35.256Z,10.5
2023-03-31T08:28:37.304Z,10.5
2023-03-31T08:30:39.439Z,10.6
2023-03-31T08:32:41.564Z,10.6
2023-03-31T08:34:43.594Z,10.6
2023-03-31T08:36:48.787Z,10.6
2023-03-31T08:38:50.948Z,10.6
2023-03-31T08:51:07.240Z,10.6
2023-03-31T08:53:09.106Z,10.6
2023-03-31T08:55:11.164Z,10.7
2023-03-31T08:59:15.345Z,10.6
2023-03-31T09:01:17.493Z,10.5
2023-03-31T09:03:19.735Z,10.4
2023-03-31T09:10:31.851Z,10.4
2023-03-31T09:12:34.008Z,10.4
2023-03-31T09:14:36.107Z,10.4
2023-03-31T09:16:38.186Z,10.5
2023-03-31T09:18:43.523Z,10.4
2023-03-31T09:20:45.655Z,10.4
2023-03-31T09:22:47.672Z,10.5
2023-03-31T09:24:49.813Z,10.6
2023-03-31T09:26:51.931Z,10.6
2023-03-31T09:28:54.098Z,10.7
2023-03-31T09:30:56.177Z,10.7
2023-03-31T09:33:01.503Z,10.8
2023-03-31T09:35:03.524Z,10.8
2023-03-31T09:37:05.581Z,11.1
2023-03-31T09:39:07.708Z,11.4
2023-03-31T09:41:09.850Z,11.6
2023-03-31T09:43:11.982Z,11.7
2023-03-31T09:45:14.117Z,11.9
2023-03-31T09:51:25.219Z,12.3
2023-03-31T10:05:42.742Z,12.3
2023-03-31T10:08:11.505Z,12.5
2023-03-31T10:10:14.901Z,12.5
2023-03-31T10:12:15.608Z,12.5
2023-03-31T10:14:20.783Z,12.4
2023-03-31T10:18:24.924Z,12.3
2023-03-31T10:20:26.926Z,12.3
2023-03-31T10:22:28.982Z,12.2
2023-03-31T10:24:31.041Z,12.2
2023-03-31T10:26:33.109Z,12.3
2023-03-31T10:28:38.298Z,12.4
2023-03-31T10:30:40.354Z,12.5
2023-03-31T10:32:42.446Z,12.8
2023-03-31T10:34:44.490Z,12.6
2023-03-31T10:36:46.538Z,12.6
2023-03-31T10:38:48.613Z,12.7
2023-03-31T10:40:50.666Z,12.5
2023-03-31T10:42:55.865Z,12.7
2023-03-31T10:44:57.897Z,12.8
2023-03-31T10:47:00.053Z,12.9
2023-03-31T10:49:02.017Z,13.1
2023-03-31T10:51:04.409Z,13.4
2023-03-31T10:53:06.128Z,13.6
2023-03-31T10:57:13.384Z,13.5
2023-03-31T11:01:17.537Z,13.5
2023-03-31T11:02:20.143Z,13.7
2023-03-31T11:04:22.207Z,13.7
2023-03-31T11:06:24.232Z,13.7
2023-03-31T11:08:26.454Z,13.5
2023-03-31T11:10:31.527Z,13.6
2023-03-31T11:12:33.603Z,13.8
2023-03-31T11:14:35.659Z,13.9
2023-03-31T11:16:37.826Z,14
2023-03-31T11:18:39.830Z,14
2023-03-31T11:20:41.867Z,14.1
2023-03-31T11:26:51.207Z,13.9
2023-03-31T11:28:53.276Z,13.9
2023-03-31T11:30:55.366Z,13.9
2023-03-31T11:32:57.491Z,14.2
2023-03-31T11:39:08.182Z,13.7
2023-03-31T11:49:17.176Z,13.6
2023-03-31T11:55:26.541Z,13.5
2023-03-31T11:57:28.765Z,13.6
2023-03-31T12:00:33.278Z,13.5
2023-03-31T12:02:35.377Z,13.3
2023-03-31T12:04:37.429Z,13.3
2023-03-31T12:27:06.558Z,13.5
2023-03-31T12:29:08.633Z,13.4
2023-03-31T12:33:13.409Z,13.2
2023-03-31T12:35:18.580Z,12.9
2023-03-31T12:37:20.659Z,12.9
2023-03-31T12:39:22.729Z,13
2023-03-31T12:43:26.889Z,13
2023-03-31T12:45:29.011Z,13.2
2023-03-31T12:47:31.056Z,13.3
2023-03-31T12:49:36.272Z,13.4
2023-03-31T12:51:38.322Z,13.2
2023-03-31T12:53:40.408Z,13
2023-03-31T13:02:54.625Z,12.6
2023-03-31T13:04:56.544Z,12.5
2023-03-31T13:06:58.599Z,12.6
2023-03-31T13:09:00.656Z,12.4
2023-03-31T13:11:02.783Z,12.3
2023-03-31T13:13:04.832Z,12.1
2023-03-31T13:15:06.877Z,12
2023-03-31T13:21:16.216Z,11.8
2023-03-31T13:23:18.281Z,11.8
2023-03-31T13:27:22.398Z,12
2023-03-31T13:29:24.513Z,12.3
2023-03-31T13:31:29.702Z,12.4
2023-03-31T13:33:31.759Z,12.5
2023-03-31T13:35:33.789Z,12.5
2023-03-31T13:37:35.877Z,12.5
2023-03-31T13:39:37.940Z,12.7
2023-03-31T13:41:40.010Z,12.8
2023-03-31T13:43:42.060Z,13
2023-03-31T13:45:47.405Z,13.1
2023-03-31T13:49:54.019Z,13.1
2023-03-31T13:52:20.013Z,13
2023-03-31T13:56:24.146Z,13
2023-03-31T13:58:34.399Z,12.8
2023-03-31T14:04:35.516Z,12.5
2023-03-31T14:08:39.663Z,12.3
2023-03-31T14:10:41.701Z,12.3
2023-03-31T14:14:48.956Z,12.4
2023-03-31T14:16:51.028Z,12.4
2023-03-31T14:18:53.099Z,12.3
2023-03-31T14:20:55.138Z,12.3
2023-03-31T14:24:59.252Z,12.3
2023-03-31T14:27:04.477Z,12.3
2023-03-31T14:31:08.902Z,12.1
2023-03-31T14:33:10.634Z,11.7
2023-03-31T14:35:12.732Z,11.6
2023-03-31T14:37:14.832Z,11.7
2023-03-31T14:39:16.813Z,11.6
2023-03-31T14:43:24.378Z,11.6
2023-03-31T14:45:26.458Z,11.7
2023-03-31T14:46:29.068Z,11.6
2023-03-31T14:48:31.125Z,11.6
2023-03-31T14:50:33.160Z,11.7
2023-03-31T14:54:40.392Z,11.7
2023-03-31T15:00:46.605Z,11.6
2023-03-31T15:02:48.630Z,11.7
2023-03-31T15:04:50.725Z,11.7
2023-03-31T15:06:52.728Z,11.8
2023-03-31T15:08:57.934Z,11.7
2023-03-31T15:17:06.098Z,11.6
2023-03-31T15:19:08.157Z,11.7
2023-03-31T15:25:17.544Z,11.7
2023-03-31T15:37:34.658Z,11.7
2023-03-31T15:39:36.667Z,11.6
2023-03-31T15:42:42.976Z,11.6
2023-03-31T16:09:14.744Z,11.1
2023-03-31T16:11:16.897Z,11.1
2023-03-31T16:13:19.019Z,11.1
2023-03-31T16:15:23.874Z,11.1
2023-03-31T16:17:23.375Z,11
2023-03-31T16:25:34.630Z,11.1
2023-03-31T16:29:38.740Z,11
2023-03-31T16:33:45.970Z,11
2023-03-31T16:37:50.042Z,11
2023-03-31T16:38:52.605Z,11
2023-03-31T16:40:54.666Z,11
2023-03-31T17:07:28.643Z,10.5
2023-03-31T17:11:34.430Z,10.5
2023-03-31T17:13:35.317Z,10.5
2023-03-31T17:15:40.495Z,10.4
2023-03-31T17:17:42.689Z,10.4
2023-03-31T17:19:44.739Z,10.4
2023-03-31T17:21:46.873Z,10.3
2023-03-31T17:25:50.949Z,10.3
2023-03-31T17:27:53.088Z,10.3
2023-03-31T17:32:00.525Z,10.2
2023-03-31T17:36:31.361Z,10.1
2023-03-31T17:38:33.334Z,10.1
2023-03-31T17:40:35.535Z,10.1
2023-03-31T17:44:42.892Z,10.1
2023-03-31T17:46:45.064Z,10.1
2023-03-31T17:50:49.161Z,10
2023-03-31T17:52:51.196Z,10
2023-03-31T17:59:00.834Z,9.9
2023-03-31T18:07:11.108Z,9.9
2023-03-31T18:11:16.578Z,9.9
2023-03-31T18:13:18.647Z,9.9
2023-03-31T18:15:20.737Z,9.8
2023-03-31T18:17:22.905Z,9.9
2023-03-31T18:19:24.993Z,9.9
2023-03-31T18:21:27.056Z,10
2023-03-31T18:30:41.280Z,9.9
2023-03-31T18:32:43.399Z,10
2023-03-31T18:36:47.489Z,10
2023-03-31T18:42:57.006Z,9.9
2023-03-31T18:44:59.156Z,10
2023-03-31T18:47:01.317Z,9.9
2023-03-31T18:49:03.299Z,10
2023-03-31T18:51:05.428Z,9.9
2023-03-31T18:59:17.107Z,9.9
2023-03-31T19:01:19.231Z,9.9
2023-03-31T19:03:21.418Z,10
2023-03-31T19:05:23.391Z,9.9
2023-03-31T19:07:28.784Z,10
2023-03-31T19:09:30.900Z,9.9
2023-03-31T19:11:32.929Z,10
2023-03-31T19:13:35.007Z,10
2023-03-31T19:15:37.028Z,10
2023-03-31T19:19:41.902Z,10
2023-03-31T19:21:47.147Z,9.9
2023-03-31T19:26:53.993Z,9.8
2023-03-31T19:28:56.134Z,9.8
2023-03-31T19:30:58.178Z,9.8
2023-03-31T19:33:00.322Z,9.8
2023-03-31T19:35:05.549Z,9.8
2023-03-31T19:37:07.580Z,9.8
2023-03-31T19:39:09.726Z,9.9
2023-03-31T19:41:11.856Z,9.8
2023-03-31T19:43:13.983Z,9.8
2023-03-31T19:45:16.120Z,9.8
2023-03-31T19:47:18.156Z,9.8
2023-03-31T19:49:23.419Z,9.8
2023-03-31T19:51:25.550Z,9.8
2023-03-31T19:53:27.678Z,9.8
2023-03-31T19:55:29.947Z,9.8
2023-03-31T19:57:31.974Z,9.7
2023-03-31T19:59:34.062Z,9.8
2023-03-31T20:01:36.254Z,9.8
2023-03-31T20:03:41.576Z,9.8
2023-03-31T20:05:43.492Z,9.8
2023-03-31T20:07:45.614Z,9.8
2023-03-31T20:09:47.758Z,9.7
2023-03-31T20:13:51.956Z,9.8
2023-03-31T20:15:54.136Z,9.8
2023-03-31T20:17:59.514Z,9.8
2023-03-31T20:22:03.607Z,9.8
2023-03-31T20:23:06.299Z,9.8
2023-03-31T20:25:08.441Z,9.8
2023-03-31T20:27:10.564Z,9.8
2023-03-31T20:29:12.761Z,9.9
2023-03-31T20:31:18.051Z,9.9
2023-03-31T20:33:20.125Z,9.9
2023-03-31T20:35:22.175Z,9.9
2023-03-31T20:37:24.282Z,9.9
2023-03-31T20:41:28.465Z,9.9
2023-03-31T20:43:30.572Z,9.9
2023-03-31T20:45:35.841Z,9.9
2023-03-31T20:47:37.963Z,9.9
2023-03-31T20:49:40.009Z,9.9
2023-03-31T20:51:42.035Z,9.9
2023-03-31T20:53:44.186Z,9.9
2023-03-31T20:55:46.262Z,9.9
2023-03-31T20:57:48.225Z,9.9
2023-03-31T20:59:53.468Z,9.9
2023-03-31T21:01:55.610Z,9.9
2023-03-31T21:03:57.811Z,9.9
2023-03-31T21:08:02.001Z,9.9
2023-03-31T21:10:04.150Z,9.8
2023-03-31T21:12:06.253Z,9.8
2023-03-31T21:14:11.536Z,9.8
2023-03-31T21:16:13.679Z,9.8
2023-03-31T21:18:15.669Z,9.8
2023-03-31T21:24:48.747Z,9.8
2023-03-31T21:26:54.184Z,9.8
2023-03-31T21:28:57.699Z,9.8
2023-03-31T21:30:59.689Z,9.8
2023-03-31T21:33:01.849Z,9.9
2023-03-31T21:35:03.964Z,9.8
2023-03-31T21:37:06.243Z,9.9
2023-03-31T21:39:08.130Z,9.8
2023-03-31T21:41:13.482Z,9.8
2023-03-31T21:43:15.517Z,9.8
2023-03-31T21:45:17.660Z,9.8
2023-03-31T21:47:19.887Z,9.8
2023-03-31T21:49:21.899Z,9.8
2023-03-31T21:51:23.900Z,9.8
2023-03-31T21:53:26.021Z,9.8
2023-03-31T21:55:31.482Z,9.7
2023-03-31T21:57:33.509Z,9.7
2023-03-31T21:59:35.441Z,9.6
2023-03-31T22:01:37.801Z,9.6
2023-03-31T22:05:41.862Z,9.7
2023-03-31T22:09:49.116Z,9.7
2023-03-31T22:11:51.310Z,9.6
2023-03-31T22:13:53.379Z,9.7
2023-03-31T22:14:55.964Z,9.7
2023-03-31T22:16:58.077Z,9.7
2023-03-31T22:19:00.118Z,9.7
2023-03-31T22:21:02.111Z,9.6
2023-03-31T22:23:07.280Z,9.7
2023-03-31T22:25:09.408Z,9.7
2023-03-31T22:27:11.546Z,9.7
2023-03-31T22:29:13.750Z,9.7
2023-03-31T22:39:27.297Z,9.6
2023-03-31T22:43:31.551Z,9.6
2023-03-31T22:45:33.895Z,9.6
2023-03-31T22:47:35.808Z,9.6
2023-03-31T22:49:37.886Z,9.6
2023-03-31T22:51:43.272Z,9.6
2023-03-31T22:53:45.285Z,9.6
2023-03-31T22:55:53.756Z,9.6
2023-03-31T22:57:49.468Z,9.6
2023-03-31T22:59:51.543Z,9.6
2023-03-31T23:01:53.699Z,9.6
2023-03-31T23:03:55.835Z,9.6
2023-03-31T23:10:05.313Z,9.6
2023-03-31T23:11:07.978Z,9.6
2023-03-31T23:13:10.104Z,9.6
2023-03-31T23:19:19.497Z,9.6
2023-03-31T23:23:23.658Z,9.6
2023-03-31T23:25:25.808Z,9.6
2023-03-31T23:27:27.950Z,9.6
2023-03-31T23:29:30.063Z,9.6
2023-03-31T23:33:37.532Z,9.6
2023-03-31T23:37:41.680Z,9.6
